Time;durP1;ratioP1;P1;durP2;ratioP2;P2;SDS_P1;SDS_P2;PMS_P1;PMS_P2;Temp;Humidity;BMP_temperature;BMP_pressure;BME280_temperature;BME280_humidity;BME280_pressure;Samples;Min_cycle;Max_cycle;Signal;HPM_P1;HPM_P2
2022/12/30 00:00:14;;;;;;;18.45;3.47;;;6.50;99.90;;;;;;5026546;28;20095;-71
2022/12/30 00:02:40;;;;;;;20.38;4.60;;;6.40;99.90;;;;;;5044801;28;20045;-67
2022/12/30 00:05:06;;;;;;;29.77;6.00;;;6.40;99.90;;;;;;5050328;28;20043;-66
2022/12/30 00:07:35;;;;;;;21.90;4.10;;;6.40;99.90;;;;;;5033327;28;20044;-67
2022/12/30 00:10:04;;;;;;;23.40;3.50;;;6.40;99.90;;;;;;5033723;28;20088;-67
2022/12/30 00:35:20;;;;;;;22.98;4.00;;;6.10;99.90;;;;;;5050256;28;20086;-67
2022/12/30 00:37:46;;;;;;;17.95;4.85;;;6.00;99.90;;;;;;5033412;28;20135;-67
2022/12/30 00:40:13;;;;;;;27.42;4.78;;;6.00;99.90;;;;;;5051105;28;20509;-67
2022/12/30 00:45:24;;;;;;;17.00;3.50;;;6.00;99.90;;;;;;5050904;28;20501;-71
2022/12/30 00:47:50;;;;;;;19.85;3.92;;;6.00;99.90;;;;;;5032755;28;20371;-67
2022/12/30 00:58:29;;;;;;;16.15;3.83;;;5.90;99.90;;;;;;5013202;28;20080;-71
2022/12/30 01:00:55;;;;;;;18.95;3.35;;;5.90;99.90;;;;;;5012951;28;20073;-71
2022/12/30 01:03:21;;;;;;;17.10;3.38;;;5.90;99.90;;;;;;5012513;28;20043;-71
2022/12/30 01:05:47;;;;;;;17.30;4.35;;;5.90;99.90;;;;;;5013040;28;20132;-72
2022/12/30 01:08:12;;;;;;;23.83;4.10;;;5.90;99.90;;;;;;5013381;28;20478;-71
2022/12/30 01:10:39;;;;;;;15.57;3.78;;;5.90;99.90;;;;;;5030073;28;20459;-71
2022/12/30 01:13:06;;;;;;;21.77;3.58;;;5.90;99.90;;;;;;5013090;28;20042;-67
2022/12/30 01:15:32;;;;;;;18.40;4.38;;;5.90;99.90;;;;;;4996632;28;20134;-67
2022/12/30 01:17:57;;;;;;;20.98;5.38;;;5.90;99.90;;;;;;5012428;28;20049;-67
2022/12/30 01:20:23;;;;;;;13.82;3.67;;;5.90;99.90;;;;;;5030233;28;20063;-67
2022/12/30 01:22:49;;;;;;;27.63;4.72;;;5.90;99.90;;;;;;5012910;28;20041;-71
2022/12/30 01:25:15;;;;;;;16.63;4.68;;;6.00;99.90;;;;;;5030255;28;20048;-71
2022/12/30 01:27:41;;;;;;;13.70;3.47;;;6.10;99.90;;;;;;5030328;28;20079;-71
2022/12/30 01:30:07;;;;;;;16.48;3.53;;;6.20;99.90;;;;;;5029831;28;20099;-71
2022/12/30 01:32:36;;;;;;;24.83;5.07;;;6.20;99.90;;;;;;4996305;28;20128;-72
2022/12/30 01:35:03;;;;;;;22.02;5.47;;;6.30;99.90;;;;;;5012636;28;20152;-67
2022/12/30 01:37:29;;;;;;;18.15;3.50;;;6.30;99.90;;;;;;5029320;28;20541;-67
2022/12/30 01:39:55;;;;;;;22.60;4.40;;;6.30;99.90;;;;;;5030445;28;20152;-71
2022/12/30 01:42:24;;;;;;;24.83;3.75;;;6.40;99.90;;;;;;5012338;28;20068;-72
2022/12/30 01:44:56;;;;;;;21.90;3.70;;;6.40;99.90;;;;;;5012237;28;20413;-72
2022/12/30 01:47:54;;;;;;;16.50;2.97;;;6.40;99.90;;;;;;5012478;28;20284;-71
2022/12/30 01:50:40;;;;;;;15.05;2.92;;;6.40;99.90;;;;;;4909210;29;20124;-71
2022/12/30 01:53:11;;;;;;;23.20;6.00;;;6.30;99.90;;;;;;4917239;29;20051;-67
2022/12/30 01:55:43;;;;;;;16.85;5.32;;;6.30;99.90;;;;;;4949425;29;20853;-67
2022/12/30 01:58:18;;;;;;;12.55;2.72;;;6.20;99.90;;;;;;4948428;29;20167;-71
2022/12/30 02:00:44;;;;;;;23.85;4.25;;;6.20;99.90;;;;;;4932515;29;20047;-71
2022/12/30 02:03:11;;;;;;;17.92;3.38;;;6.10;99.90;;;;;;4948856;29;20083;-72
2022/12/30 02:05:39;;;;;;;19.15;3.65;;;6.10;99.90;;;;;;4947919;29;20051;-71
2022/12/30 02:08:19;;;;;;;25.33;3.90;;;6.00;99.90;;;;;;4935982;29;20055;-67
2022/12/30 02:10:48;;;;;;;12.55;3.45;;;5.90;99.90;;;;;;4936634;29;20495;-67
2022/12/30 02:13:16;;;;;;;16.25;3.83;;;5.90;99.90;;;;;;4951849;29;20539;-67
2022/12/30 02:15:54;;;;;;;13.68;3.15;;;5.80;99.90;;;;;;4920362;29;20046;-67
2022/12/30 02:18:55;;;;;;;11.00;2.78;;;5.70;99.90;;;;;;4952558;29;20036;-67
2022/12/30 02:21:20;;;;;;;20.38;4.53;;;5.70;99.90;;;;;;4929278;29;20114;-67
2022/12/30 02:24:00;;;;;;;15.02;4.10;;;5.60;99.90;;;;;;4936580;29;20543;-67
2022/12/30 02:26:44;;;;;;;20.83;3.83;;;5.50;99.90;;;;;;4961322;28;20043;-67
2022/12/30 02:29:42;;;;;;;22.30;3.90;;;5.50;99.90;;;;;;5015426;28;20049;-67
2022/12/30 02:32:44;;;;;;;19.30;4.28;;;5.50;99.90;;;;;;5032327;28;20096;-67
2022/12/30 02:35:43;;;;;;;15.65;4.00;;;5.50;99.90;;;;;;5014452;28;20038;-67
2022/12/30 02:38:36;;;;;;;21.20;3.63;;;5.40;99.90;;;;;;5001312;28;20054;-71
2022/12/30 02:44:36;;;;;;;24.23;4.28;;;5.30;99.90;;;;;;5030879;28;20091;-67
2022/12/30 02:47:21;;;;;;;20.83;4.80;;;5.30;99.90;;;;;;5011899;28;20486;-67
2022/12/30 02:52:49;;;;;;;13.77;3.25;;;5.30;99.90;;;;;;5032009;28;20052;-71
2022/12/30 02:55:17;;;;;;;16.08;3.50;;;5.20;99.90;;;;;;5030535;28;20048;-72
2022/12/30 02:57:42;;;;;;;24.40;4.28;;;5.10;99.90;;;;;;5032227;28;20131;-71
2022/12/30 03:06:35;;;;;;;22.70;3.45;;;5.10;99.90;;;;;;5032034;28;20045;-67
2022/12/30 03:09:10;;;;;;;18.42;3.95;;;5.10;99.90;;;;;;5031562;28;20048;-67
2022/12/30 03:12:02;;;;;;;16.50;3.13;;;5.20;99.90;;;;;;5031713;28;20053;-67
2022/12/30 03:14:34;;;;;;;13.00;2.70;;;5.10;99.90;;;;;;5032276;28;20037;-71
2022/12/30 03:17:06;;;;;;;12.00;3.08;;;5.10;99.90;;;;;;5031120;28;20038;-71
2022/12/30 03:19:38;;;;;;;16.83;3.58;;;5.10;99.90;;;;;;5031325;28;20040;-67
2022/12/30 03:27:02;;;;;;;14.20;3.60;;;5.10;99.90;;;;;;5029777;28;20045;-67
2022/12/30 03:27:40;;;;;;;16.52;3.45;;;5.10;99.90;;;;;;5031501;28;20060;-67
2022/12/30 03:30:06;;;;;;;18.50;4.15;;;5.10;99.90;;;;;;5031011;28;20134;-67
2022/12/30 03:32:32;;;;;;;22.92;4.57;;;5.00;99.90;;;;;;5030006;28;20050;-67
2022/12/30 03:34:58;;;;;;;26.65;5.32;;;5.10;99.90;;;;;;5031828;28;20065;-67
2022/12/30 03:37:52;;;;;;;13.63;3.88;;;5.00;99.90;;;;;;5029579;28;20553;-67
2022/12/30 03:40:30;;;;;;;11.85;3.85;;;5.00;99.90;;;;;;5051633;28;20041;-71
2022/12/30 03:42:56;;;;;;;14.48;3.20;;;4.90;99.90;;;;;;5015295;28;20050;-71
2022/12/30 03:45:22;;;;;;;18.17;3.45;;;4.90;99.90;;;;;;5031706;28;20068;-67
2022/12/30 03:47:48;;;;;;;16.50;4.15;;;4.90;99.90;;;;;;5013598;28;20038;-67
2022/12/30 03:50:14;;;;;;;11.60;2.97;;;4.90;99.90;;;;;;5022505;28;20508;-67
2022/12/30 03:52:40;;;;;;;20.02;3.78;;;4.90;99.90;;;;;;5030995;28;20695;-67
2022/12/30 03:55:06;;;;;;;14.00;2.70;;;4.80;99.90;;;;;;5031221;28;20087;-71
2022/12/30 03:57:32;;;;;;;12.48;2.40;;;4.80;99.90;;;;;;5012485;28;20091;-72
2022/12/30 03:59:59;;;;;;;12.63;3.22;;;4.80;99.90;;;;;;5013413;28;20038;-67
2022/12/30 04:02:25;;;;;;;18.33;3.22;;;4.80;99.90;;;;;;5031777;28;20458;-67
2022/12/30 04:04:51;;;;;;;10.65;2.83;;;4.80;99.90;;;;;;5013744;28;20053;-71
2022/12/30 04:07:17;;;;;;;17.73;3.83;;;4.80;99.90;;;;;;5031847;28;20073;-72
2022/12/30 04:09:43;;;;;;;9.15;1.98;;;4.80;99.90;;;;;;5014032;28;20494;-67
2022/12/30 04:12:08;;;;;;;15.23;3.00;;;4.80;99.90;;;;;;4996995;28;20037;-67
2022/12/30 04:14:34;;;;;;;9.25;2.45;;;4.80;99.90;;;;;;5014304;28;20076;-71
2022/12/30 04:17:00;;;;;;;12.02;3.00;;;4.80;99.90;;;;;;5013870;28;20046;-72
2022/12/30 04:19:26;;;;;;;15.98;3.05;;;4.80;99.90;;;;;;5013361;28;20092;-66
2022/12/30 04:21:51;;;;;;;9.82;2.13;;;4.80;99.90;;;;;;5031542;28;20041;-67
2022/12/30 04:24:17;;;;;;;18.95;2.45;;;4.80;99.90;;;;;;4997547;28;20041;-71
2022/12/30 04:26:43;;;;;;;13.80;2.72;;;4.90;99.90;;;;;;5013125;28;20076;-71
2022/12/30 04:29:09;;;;;;;12.73;2.38;;;4.80;99.90;;;;;;5031667;28;20042;-67
2022/12/30 04:31:35;;;;;;;15.32;2.97;;;4.80;99.90;;;;;;5030447;28;20624;-67
2022/12/30 04:34:00;;;;;;;10.30;1.92;;;4.80;99.90;;;;;;5013169;28;20063;-67
2022/12/30 04:36:27;;;;;;;11.18;2.00;;;4.80;99.90;;;;;;4997178;28;20033;-67
2022/12/30 04:38:53;;;;;;;14.27;2.60;;;4.80;99.90;;;;;;4992942;28;20046;-67
2022/12/30 04:41:20;;;;;;;16.58;3.40;;;4.80;99.90;;;;;;5011661;28;20034;-67
2022/12/30 04:43:46;;;;;;;9.40;2.47;;;4.80;99.90;;;;;;5011722;28;20103;-67
2022/12/30 04:46:12;;;;;;;14.65;3.08;;;4.90;99.90;;;;;;5009741;28;20046;-67
2022/12/30 04:48:38;;;;;;;9.30;2.88;;;4.80;99.90;;;;;;5006772;28;20042;-67
2022/12/30 04:51:05;;;;;;;9.77;2.15;;;4.80;99.90;;;;;;5023913;28;20191;-67
2022/12/30 04:53:31;;;;;;;9.27;2.22;;;4.90;99.90;;;;;;5030099;28;20124;-67
2022/12/30 04:55:57;;;;;;;10.27;3.00;;;4.90;99.90;;;;;;5031222;28;20037;-67
2022/12/30 04:58:24;;;;;;;12.52;2.85;;;4.90;99.90;;;;;;5029220;28;20484;-67
2022/12/30 05:00:51;;;;;;;12.90;2.72;;;5.00;99.90;;;;;;5029663;28;20044;-67
2022/12/30 05:03:18;;;;;;;13.80;2.88;;;5.00;99.90;;;;;;5011914;28;20261;-66
2022/12/30 05:05:44;;;;;;;13.60;2.67;;;5.00;99.90;;;;;;5028949;28;20123;-71
2022/12/30 05:08:10;;;;;;;10.18;3.10;;;4.90;99.90;;;;;;5029003;28;20046;-71
2022/12/30 05:10:38;;;;;;;11.90;3.05;;;4.90;99.90;;;;;;5028628;28;20057;-66
2022/12/30 05:13:04;;;;;;;6.85;2.65;;;5.00;99.90;;;;;;5028388;28;20045;-67
2022/12/30 05:15:30;;;;;;;16.33;3.63;;;4.90;99.90;;;;;;5030261;28;20448;-67
2022/12/30 05:17:57;;;;;;;20.52;3.60;;;5.00;99.90;;;;;;5029473;28;20076;-66
2022/12/30 05:20:23;;;;;;;12.75;4.28;;;5.00;99.90;;;;;;5013053;28;20045;-67
2022/12/30 05:22:48;;;;;;;10.07;3.08;;;5.00;99.90;;;;;;5029817;28;20056;-67
2022/12/30 05:27:58;;;;;;;9.68;2.78;;;5.00;99.90;;;;;;5028695;28;20048;-71
2022/12/30 05:30:25;;;;;;;9.85;3.08;;;4.90;99.90;;;;;;5028990;28;20046;-72
2022/12/30 05:32:51;;;;;;;8.57;2.80;;;4.90;99.90;;;;;;5011485;28;20124;-71
2022/12/30 05:35:17;;;;;;;10.50;3.58;;;4.90;99.90;;;;;;5011748;28;20034;-67
2022/12/30 05:37:43;;;;;;;16.65;3.15;;;4.90;99.90;;;;;;5012266;28;20645;-67
2022/12/30 05:40:10;;;;;;;17.23;3.80;;;4.90;99.90;;;;;;5012096;28;20561;-67
2022/12/30 05:42:36;;;;;;;10.80;3.67;;;4.90;99.90;;;;;;5010807;28;20041;-67
2022/12/30 05:45:06;;;;;;;9.70;3.33;;;4.80;99.90;;;;;;5012311;28;20103;-71
2022/12/30 05:47:31;;;;;;;12.50;3.33;;;4.80;99.90;;;;;;5011442;28;20122;-71
2022/12/30 05:49:57;;;;;;;13.40;3.50;;;4.80;99.90;;;;;;5002728;28;20061;-67
2022/12/30 05:52:23;;;;;;;11.80;3.10;;;4.80;99.90;;;;;;5011459;28;20049;-67
2022/12/30 05:54:49;;;;;;;12.55;3.20;;;4.80;99.90;;;;;;5012214;28;20536;-66
2022/12/30 05:57:15;;;;;;;15.43;5.10;;;4.80;99.90;;;;;;5029583;28;20053;-67
2022/12/30 05:59:40;;;;;;;11.63;2.67;;;4.80;99.90;;;;;;5012493;28;20041;-66
2022/12/30 06:02:06;;;;;;;16.85;4.10;;;4.80;99.90;;;;;;5012261;28;20132;-66
2022/12/30 06:04:32;;;;;;;8.02;2.03;;;4.80;99.90;;;;;;5012266;28;20053;-67
2022/12/30 06:06:58;;;;;;;14.27;3.67;;;4.80;99.90;;;;;;5029942;28;20562;-67
2022/12/30 06:09:27;;;;;;;12.10;3.53;;;4.80;99.90;;;;;;5012486;28;20041;-66
2022/12/30 06:11:52;;;;;;;12.00;3.78;;;4.80;99.90;;;;;;5028966;28;20048;-71
2022/12/30 06:14:19;;;;;;;13.27;2.63;;;4.80;99.90;;;;;;5012244;28;20124;-71
2022/12/30 06:16:45;;;;;;;14.63;3.33;;;4.80;99.90;;;;;;5011783;28;20072;-71
2022/12/30 06:19:11;;;;;;;9.65;2.80;;;4.70;99.90;;;;;;5028412;28;20500;-72
2022/12/30 06:21:36;;;;;;;12.52;2.80;;;4.80;99.90;;;;;;5011404;28;20053;-67
2022/12/30 06:24:02;;;;;;;11.73;3.15;;;4.70;99.90;;;;;;5028293;28;20037;-67
2022/12/30 06:26:28;;;;;;;9.85;2.72;;;4.70;99.90;;;;;;5029228;28;20042;-67
2022/12/30 06:28:54;;;;;;;19.13;3.10;;;4.70;99.90;;;;;;5011067;28;20095;-67
2022/12/30 06:31:20;;;;;;;7.88;2.45;;;4.70;99.90;;;;;;5028167;28;20404;-67
2022/12/30 06:33:46;;;;;;;11.40;2.40;;;4.70;99.90;;;;;;5028947;28;20498;-67
2022/12/30 06:36:11;;;;;;;17.83;3.42;;;4.70;99.90;;;;;;5011344;28;20540;-71
2022/12/30 06:38:38;;;;;;;9.63;2.85;;;4.70;99.90;;;;;;4993849;28;20085;-71
2022/12/30 06:41:04;;;;;;;13.00;3.00;;;4.70;99.90;;;;;;4995341;28;20201;-71
2022/12/30 06:43:30;;;;;;;13.50;3.58;;;4.70;99.90;;;;;;5010895;28;20497;-71
2022/12/30 06:45:56;;;;;;;12.50;2.47;;;4.70;99.90;;;;;;5010474;28;20095;-66
2022/12/30 06:48:22;;;;;;;12.50;3.65;;;4.70;99.90;;;;;;5008428;28;20051;-67
2022/12/30 06:50:48;;;;;;;9.30;2.60;;;4.70;99.90;;;;;;5005228;28;20045;-71
2022/12/30 06:53:14;;;;;;;13.57;2.97;;;4.70;99.90;;;;;;5027946;28;20041;-71
2022/12/30 06:55:40;;;;;;;13.00;2.75;;;4.70;99.90;;;;;;5032470;28;20469;-67
2022/12/30 06:58:06;;;;;;;14.80;3.17;;;4.70;99.90;;;;;;5032108;28;20034;-67
2022/12/30 07:00:34;;;;;;;8.05;2.15;;;4.60;99.90;;;;;;5031664;28;20110;-67
2022/12/30 07:02:59;;;;;;;15.23;3.22;;;4.70;99.90;;;;;;5014413;28;20112;-66
2022/12/30 07:05:25;;;;;;;8.75;2.33;;;4.70;99.90;;;;;;4998178;28;20048;-67
2022/12/30 07:07:51;;;;;;;7.88;2.38;;;4.70;99.90;;;;;;5013495;28;20045;-67
2022/12/30 07:10:17;;;;;;;17.48;2.90;;;4.70;99.90;;;;;;5032078;28;20059;-67
2022/12/30 07:12:43;;;;;;;8.63;2.45;;;4.70;99.90;;;;;;5014121;28;20056;-67
2022/12/30 07:15:09;;;;;;;11.45;2.58;;;4.70;99.90;;;;;;5030915;28;20037;-71
2022/12/30 07:17:35;;;;;;;12.82;3.00;;;4.70;99.90;;;;;;5031327;28;20041;-71
2022/12/30 07:20:01;;;;;;;13.13;2.05;;;4.70;99.90;;;;;;5030969;28;20127;-70
2022/12/30 07:22:27;;;;;;;9.00;2.83;;;4.70;99.90;;;;;;5013316;28;20053;-70
2022/12/30 07:24:55;;;;;;;7.22;2.75;;;4.70;99.90;;;;;;5013249;28;20045;-71
2022/12/30 07:27:21;;;;;;;5.50;1.95;;;4.70;99.90;;;;;;5012516;28;20382;-67
2022/12/30 07:29:47;;;;;;;7.28;1.65;;;4.70;99.90;;;;;;5013663;28;20115;-67
2022/12/30 07:32:13;;;;;;;13.30;2.10;;;4.70;99.90;;;;;;5013443;28;20512;-67
2022/12/30 07:34:39;;;;;;;9.68;3.05;;;4.70;99.90;;;;;;5030389;28;20124;-67
2022/12/30 07:37:05;;;;;;;15.88;2.65;;;4.70;99.90;;;;;;5013674;28;20110;-67
2022/12/30 07:39:31;;;;;;;9.82;1.73;;;4.70;99.90;;;;;;5012797;28;20068;-67
2022/12/30 07:41:57;;;;;;;8.43;2.30;;;4.70;99.90;;;;;;5012525;28;20088;-71
2022/12/30 07:44:23;;;;;;;4.50;1.77;;;4.70;99.90;;;;;;5030619;28;20069;-71
2022/12/30 07:46:49;;;;;;;11.32;2.35;;;4.80;99.90;;;;;;5031443;28;20041;-68
2022/12/30 07:49:15;;;;;;;9.18;1.95;;;4.80;99.90;;;;;;5004552;28;20042;-68
2022/12/30 07:51:41;;;;;;;12.18;2.58;;;4.80;99.90;;;;;;5013720;28;20056;-71
2022/12/30 07:54:06;;;;;;;4.25;1.75;;;4.70;99.90;;;;;;5013295;28;20413;-69
2022/12/30 07:56:32;;;;;;;9.20;1.95;;;4.80;99.90;;;;;;5030644;28;20041;-69
2022/12/30 07:58:59;;;;;;;12.35;2.47;;;4.80;99.90;;;;;;5013142;28;20120;-69
2022/12/30 08:01:25;;;;;;;7.82;1.67;;;4.80;99.90;;;;;;5031116;28;20041;-66
2022/12/30 08:03:51;;;;;;;8.95;2.85;;;4.80;99.90;;;;;;5012596;28;20049;-67
2022/12/30 08:06:18;;;;;;;12.10;2.08;;;4.80;99.90;;;;;;5030997;28;20041;-70
2022/12/30 08:08:45;;;;;;;11.73;1.98;;;4.80;99.90;;;;;;5013412;28;20041;-70
2022/12/30 08:11:12;;;;;;;7.85;2.97;;;4.80;99.90;;;;;;5030413;28;20133;-66
2022/12/30 08:13:40;;;;;;;11.88;2.25;;;4.80;99.90;;;;;;5012731;28;20053;-67
2022/12/30 08:16:08;;;;;;;10.95;2.80;;;4.80;99.90;;;;;;5012846;28;20037;-67
2022/12/30 08:18:34;;;;;;;15.05;3.17;;;4.80;99.90;;;;;;5030778;28;20131;-67
2022/12/30 08:21:02;;;;;;;9.75;2.38;;;4.80;99.90;;;;;;5031031;28;20045;-70
2022/12/30 08:23:29;;;;;;;9.60;2.42;;;4.80;99.90;;;;;;5011787;28;20513;-71
2022/12/30 08:25:56;;;;;;;10.05;2.60;;;4.80;99.90;;;;;;5030540;28;20052;-67
2022/12/30 08:28:21;;;;;;;11.75;3.60;;;4.80;99.90;;;;;;5030302;28;20049;-67
2022/12/30 08:30:47;;;;;;;10.18;1.98;;;4.80;99.90;;;;;;5012547;28;20045;-70
2022/12/30 08:33:13;;;;;;;13.27;2.83;;;4.80;99.90;;;;;;4996242;28;20486;-70
2022/12/30 08:35:39;;;;;;;17.00;3.20;;;4.80;99.90;;;;;;5030650;28;20037;-70
2022/12/30 08:38:05;;;;;;;12.07;3.30;;;4.80;99.90;;;;;;5005966;28;20061;-67
2022/12/30 08:40:33;;;;;;;21.35;4.13;;;4.90;99.90;;;;;;5011104;28;20046;-67
2022/12/30 08:43:00;;;;;;;10.00;3.80;;;4.80;99.90;;;;;;4992669;28;20046;-68
2022/12/30 08:45:28;;;;;;;13.13;2.60;;;4.90;99.90;;;;;;4992438;28;20050;-68
2022/12/30 08:47:54;;;;;;;10.30;3.55;;;4.90;99.90;;;;;;4992906;28;20081;-68
2022/12/30 08:50:20;;;;;;;11.57;3.17;;;4.90;99.90;;;;;;4984654;28;20431;-68
2022/12/30 08:52:46;;;;;;;10.55;2.53;;;5.00;99.90;;;;;;4992430;28;20108;-68
2022/12/30 08:55:12;;;;;;;6.05;2.03;;;5.00;99.90;;;;;;5010173;28;20403;-70
2022/12/30 08:57:39;;;;;;;14.13;3.15;;;5.00;99.90;;;;;;5010398;28;20048;-64
2022/12/30 09:00:06;;;;;;;8.43;2.50;;;5.00;99.90;;;;;;4992017;28;20049;-65
2022/12/30 09:02:33;;;;;;;13.43;3.40;;;5.00;99.90;;;;;;4993064;28;20045;-65
2022/12/30 09:04:59;;;;;;;12.32;3.15;;;5.00;99.90;;;;;;5009430;28;20498;-65
2022/12/30 09:07:25;;;;;;;18.75;3.78;;;5.00;99.90;;;;;;5009150;28;20054;-68
2022/12/30 09:09:51;;;;;;;8.40;3.10;;;5.00;99.90;;;;;;4992502;28;20042;-68
2022/12/30 09:12:17;;;;;;;16.73;3.80;;;5.10;99.90;;;;;;5009744;28;20034;-66
2022/12/30 09:14:43;;;;;;;8.18;2.15;;;5.10;99.90;;;;;;4992247;28;20048;-66
2022/12/30 09:17:09;;;;;;;13.35;3.30;;;5.10;99.90;;;;;;5009668;28;20089;-70
2022/12/30 09:19:35;;;;;;;5.85;1.75;;;5.20;99.90;;;;;;5009028;28;20034;-71
2022/12/30 09:22:01;;;;;;;12.35;4.13;;;5.20;99.90;;;;;;5009981;28;20096;-70
2022/12/30 09:24:27;;;;;;;10.38;2.97;;;5.30;99.90;;;;;;4992061;28;20073;-67
2022/12/30 09:26:53;;;;;;;8.15;2.10;;;5.40;99.90;;;;;;5009514;28;20046;-66
2022/12/30 09:29:18;;;;;;;7.88;3.30;;;5.40;99.90;;;;;;4992382;28;20045;-66
2022/12/30 09:31:44;;;;;;;11.10;2.95;;;5.50;99.90;;;;;;4992704;28;20092;-66
2022/12/30 09:34:12;;;;;;;5.60;2.20;;;5.50;99.90;;;;;;4991394;28;20045;-67
2022/12/30 09:36:37;;;;;;;12.65;2.90;;;5.60;99.90;;;;;;5009867;28;20045;-66
2022/12/30 09:39:03;;;;;;;7.18;2.75;;;5.60;99.90;;;;;;5002108;28;20184;-66
2022/12/30 09:44:47;;;;;;;12.27;2.78;;;5.70;99.90;;;;;;5009531;28;20053;-70
2022/12/30 09:47:42;;;;;;;5.00;1.88;;;5.70;99.90;;;;;;5007947;28;20038;-65
2022/12/30 09:50:26;;;;;;;9.95;3.55;;;5.80;99.90;;;;;;5000010;28;20521;-65
2022/12/30 09:52:51;;;;;;;4.80;1.98;;;5.90;99.90;;;;;;5010091;28;20089;-65
2022/12/30 09:55:26;;;;;;;10.85;2.53;;;5.90;99.90;;;;;;4992155;28;20038;-65
2022/12/30 09:57:58;;;;;;;7.82;2.67;;;5.90;99.90;;;;;;5009275;28;20045;-68
2022/12/30 10:00:26;;;;;;;11.60;2.65;;;5.90;99.90;;;;;;5008585;28;20046;-68
2022/12/30 10:02:57;;;;;;;8.60;3.05;;;6.00;99.90;;;;;;5008528;28;20081;-65
2022/12/30 10:05:53;;;;;;;6.00;1.77;;;6.00;99.90;;;;;;5009011;28;20490;-66
2022/12/30 10:08:37;;;;;;;13.02;2.90;;;6.10;99.90;;;;;;5010059;28;20046;-65
2022/12/30 10:11:27;;;;;;;6.97;1.83;;;6.20;99.90;;;;;;5010595;28;20037;-66
2022/12/30 10:14:30;;;;;;;10.10;3.33;;;6.20;99.90;;;;;;5010346;28;20076;-65
2022/12/30 10:17:25;;;;;;;10.00;3.22;;;6.30;99.90;;;;;;5009884;28;20057;-69
2022/12/30 10:20:19;;;;;;;9.13;2.95;;;6.40;99.90;;;;;;4988083;28;20754;-69
2022/12/30 10:23:11;;;;;;;7.15;2.13;;;6.40;99.90;;;;;;4987482;28;20053;-65
2022/12/30 10:25:44;;;;;;;8.80;2.83;;;6.50;99.90;;;;;;4987245;28;20702;-66
2022/12/30 10:28:13;;;;;;;9.07;3.20;;;6.50;99.90;;;;;;4989832;28;20049;-64
2022/12/30 10:30:45;;;;;;;7.53;2.30;;;6.50;99.90;;;;;;4974304;28;20058;-68
2022/12/30 10:33:23;;;;;;;8.48;2.90;;;6.50;99.90;;;;;;4974738;28;20058;-69
2022/12/30 10:35:53;;;;;;;9.93;2.38;;;6.50;99.90;;;;;;4988863;28;20043;-70
2022/12/30 10:38:25;;;;;;;5.25;1.50;;;6.60;99.90;;;;;;4989469;28;20165;-67
2022/12/30 10:40:51;;;;;;;5.38;2.35;;;6.60;99.90;;;;;;4991567;28;20166;-67
2022/12/30 10:43:16;;;;;;;8.27;1.95;;;6.60;99.90;;;;;;4974557;28;20046;-69
2022/12/30 10:46:16;;;;;;;8.13;2.15;;;6.60;99.90;;;;;;4975381;28;20240;-69
2022/12/30 10:48:45;;;;;;;7.43;2.70;;;6.60;99.90;;;;;;4976322;28;20402;-67
2022/12/30 10:51:16;;;;;;;6.10;1.75;;;6.70;99.90;;;;;;4974680;28;20137;-67
2022/12/30 10:53:46;;;;;;;10.35;2.10;;;6.70;99.90;;;;;;4991358;28;20135;-69
2022/12/30 10:56:29;;;;;;;2.05;0.88;;;6.70;99.90;;;;;;5001588;28;20045;-70
2022/12/30 10:59:11;;;;;;;7.15;1.70;;;6.70;99.90;;;;;;4994296;28;20046;-71
2022/12/30 11:01:39;;;;;;;7.93;2.10;;;6.80;99.90;;;;;;5013705;28;20046;-70
2022/12/30 11:04:05;;;;;;;4.07;2.33;;;6.80;99.90;;;;;;4995169;28;20041;-71
2022/12/30 11:06:34;;;;;;;6.15;2.28;;;6.80;99.90;;;;;;4988783;28;20044;-67
2022/12/30 11:09:12;;;;;;;7.28;2.10;;;6.80;99.90;;;;;;5032065;28;20504;-68
2022/12/30 11:14:43;;;;;;;6.78;2.28;;;6.80;99.90;;;;;;5025096;28;20053;-69
2022/12/30 11:17:15;;;;;;;6.13;1.65;;;6.90;99.90;;;;;;4981748;28;20116;-66
2022/12/30 11:19:43;;;;;;;7.75;2.45;;;6.90;99.90;;;;;;5022984;28;20120;-65
2022/12/30 11:22:10;;;;;;;6.97;1.70;;;7.00;99.90;;;;;;5031074;28;20048;-69
2022/12/30 11:24:37;;;;;;;4.80;1.58;;;7.00;99.90;;;;;;5014155;28;20132;-71
2022/12/30 11:27:04;;;;;;;2.45;0.77;;;7.00;99.90;;;;;;5031258;28;20053;-67
2022/12/30 11:29:33;;;;;;;7.82;1.75;;;7.10;99.90;;;;;;5014543;28;20042;-68
2022/12/30 11:32:08;;;;;;;5.45;2.00;;;7.10;99.90;;;;;;5030735;28;20041;-67
2022/12/30 11:34:36;;;;;;;5.60;1.38;;;7.10;99.90;;;;;;5031719;28;20033;-67
2022/12/30 11:37:36;;;;;;;5.65;1.10;;;7.20;99.90;;;;;;5019516;28;20042;-69
2022/12/30 11:40:33;;;;;;;8.45;1.60;;;7.20;99.90;;;;;;5003975;28;20056;-70
2022/12/30 11:43:13;;;;;;;5.85;1.83;;;7.20;99.90;;;;;;5008910;28;20396;-67
2022/12/30 11:46:07;;;;;;;3.28;1.20;;;7.20;99.90;;;;;;5040278;28;20482;-67
2022/12/30 11:48:53;;;;;;;5.78;1.17;;;7.30;99.90;;;;;;5029299;28;20129;-67
2022/12/30 11:51:25;;;;;;;6.57;1.38;;;7.40;99.90;;;;;;5029161;28;20136;-67
2022/12/30 11:54:20;;;;;;;4.78;1.00;;;7.40;99.90;;;;;;5030187;28;20037;-70
2022/12/30 11:56:59;;;;;;;6.50;1.70;;;7.40;99.90;;;;;;5024467;28;20088;-71
2022/12/30 11:59:35;;;;;;;3.85;1.10;;;7.40;99.90;;;;;;5031568;28;20052;-70
2022/12/30 12:02:14;;;;;;;6.55;1.20;;;7.40;99.90;;;;;;5013826;28;20175;-70
2022/12/30 12:04:42;;;;;;;9.98;1.73;;;7.40;99.90;;;;;;5045700;28;20402;-70
2022/12/30 12:07:18;;;;;;;3.92;1.25;;;7.50;99.90;;;;;;5011803;28;20109;-70
2022/12/30 12:09:53;;;;;;;4.10;1.25;;;7.50;99.90;;;;;;5011752;28;20552;-70
2022/12/30 12:12:24;;;;;;;5.13;1.45;;;7.50;99.90;;;;;;5025073;28;20041;-67
2022/12/30 12:15:15;;;;;;;4.82;1.17;;;7.50;99.90;;;;;;5029299;28;20052;-68
2022/12/30 12:17:56;;;;;;;7.38;0.95;;;7.50;99.90;;;;;;5014141;28;20437;-67
2022/12/30 12:20:39;;;;;;;4.15;1.17;;;7.60;99.90;;;;;;5024931;28;20037;-67
2022/12/30 12:23:21;;;;;;;2.70;1.17;;;7.60;99.90;;;;;;5020814;28;20113;-68
2022/12/30 12:26:20;;;;;;;2.08;1.15;;;7.70;99.90;;;;;;4979242;28;20045;-67
2022/12/30 12:28:51;;;;;;;6.47;1.27;;;7.80;99.90;;;;;;5009908;28;20057;-68
2022/12/30 12:31:40;;;;;;;6.20;1.17;;;7.80;99.90;;;;;;5027083;28;20049;-67
2022/12/30 12:34:31;;;;;;;5.30;1.10;;;7.80;99.90;;;;;;4998979;28;20048;-67
2022/12/30 12:37:24;;;;;;;4.15;1.30;;;7.90;99.90;;;;;;5020950;28;20041;-71
2022/12/30 12:40:12;;;;;;;2.33;1.17;;;7.90;99.90;;;;;;5003251;28;20041;-70
2022/12/30 12:43:09;;;;;;;9.40;1.45;;;8.00;99.90;;;;;;5006410;28;20506;-69
2022/12/30 12:45:53;;;;;;;6.38;1.30;;;8.00;99.90;;;;;;5020760;28;20446;-65
2022/12/30 12:48:31;;;;;;;2.03;0.65;;;8.00;99.90;;;;;;5005509;28;20124;-69
2022/12/30 12:51:35;;;;;;;7.03;1.35;;;8.10;99.90;;;;;;5026870;28;20057;-70
2022/12/30 12:54:29;;;;;;;6.05;1.48;;;8.20;99.90;;;;;;4976198;28;20061;-67
2022/12/30 12:57:19;;;;;;;6.45;1.92;;;8.20;99.90;;;;;;4995571;28;20736;-67
2022/12/30 12:59:54;;;;;;;4.15;1.27;;;8.20;99.90;;;;;;4991507;28;20555;-66
2022/12/30 13:02:53;;;;;;;4.50;0.95;;;8.30;99.90;;;;;;4990051;28;20405;-67
2022/12/30 13:05:31;;;;;;;4.18;1.15;;;8.30;99.90;;;;;;4991379;28;20041;-67
2022/12/30 13:08:06;;;;;;;3.70;0.85;;;8.30;99.90;;;;;;4996780;28;20077;-67
2022/12/30 13:10:31;;;;;;;4.15;1.27;;;8.30;99.90;;;;;;5014949;28;20083;-66
2022/12/30 13:13:07;;;;;;;5.53;1.65;;;8.40;99.90;;;;;;5007505;28;20486;-70
2022/12/30 13:15:42;;;;;;;4.10;1.02;;;8.40;99.90;;;;;;5029757;28;20049;-70
2022/12/30 13:18:18;;;;;;;4.88;1.15;;;8.40;99.90;;;;;;5011865;28;20034;-69
2022/12/30 13:21:06;;;;;;;3.20;1.48;;;8.50;99.90;;;;;;5025541;28;20095;-70
2022/12/30 13:23:52;;;;;;;5.88;1.23;;;8.50;99.90;;;;;;5007703;28;20478;-70
2022/12/30 13:26:25;;;;;;;1.65;0.98;;;8.60;99.90;;;;;;5012258;28;20192;-70
2022/12/30 13:28:58;;;;;;;6.65;1.00;;;8.60;99.90;;;;;;5001315;28;20077;-68
2022/12/30 13:31:54;;;;;;;3.45;1.10;;;8.70;99.90;;;;;;4994326;28;20045;-66
2022/12/30 13:34:51;;;;;;;4.32;1.92;;;8.70;99.90;;;;;;5023291;28;20124;-67
2022/12/30 13:37:38;;;;;;;5.32;1.58;;;8.80;99.90;;;;;;4942741;29;20111;-66
2022/12/30 13:40:16;;;;;;;4.07;0.98;;;8.80;99.90;;;;;;4929267;29;20051;-67
2022/12/30 13:42:57;;;;;;;3.67;1.13;;;8.90;99.90;;;;;;4914298;29;20059;-66
2022/12/30 13:45:24;;;;;;;2.97;0.90;;;8.80;99.90;;;;;;4918458;29;20039;-67
2022/12/30 13:47:57;;;;;;;3.03;0.70;;;8.90;99.90;;;;;;4933624;29;20554;-69
2022/12/30 13:50:26;;;;;;;3.58;0.90;;;8.90;99.90;;;;;;4921547;29;20040;-70
2022/12/30 13:52:56;;;;;;;2.95;1.20;;;8.90;99.90;;;;;;4929026;29;20043;-66
2022/12/30 13:55:34;;;;;;;4.57;0.88;;;8.90;99.90;;;;;;4913249;29;20067;-67
2022/12/30 13:58:21;;;;;;;2.85;0.77;;;8.90;99.90;;;;;;4917190;29;20119;-65
2022/12/30 14:01:01;;;;;;;6.72;1.48;;;8.80;99.90;;;;;;4927329;29;20058;-65
2022/12/30 14:03:27;;;;;;;3.40;0.90;;;8.70;99.90;;;;;;4913494;29;20044;-66
2022/12/30 14:06:00;;;;;;;4.95;1.00;;;8.70;99.90;;;;;;4932029;29;20047;-66
2022/12/30 14:08:26;;;;;;;6.20;1.30;;;8.60;99.90;;;;;;4901264;29;20067;-66
2022/12/30 14:11:00;;;;;;;5.72;1.00;;;8.70;99.90;;;;;;4933119;29;20051;-66